sensor_id;sensor_type;location;lat;lon;timestamp;temperature;humidity
22984;DHT22;11658;48.908;9.140;2022-09-09T03:04:13;15.10;99.90
22984;DHT22;11658;48.908;9.140;2022-09-09T03:06:38;15.00;99.90
22984;DHT22;11658;48.908;9.140;2022-09-09T03:09:04;14.90;99.90
22984;DHT22;11658;48.908;9.140;2022-09-09T03:11:30;15.00;99.90
22984;DHT22;11658;48.908;9.140;2022-09-09T03:13:56;15.00;99.90
22984;DHT22;11658;48.908;9.140;2022-09-09T03:16:23;14.90;99.90
22984;DHT22;11658;48.908;9.140;2022-09-09T03:18:48;14.90;99.90
22984;DHT22;11658;48.908;9.140;2022-09-09T03:21:14;14.90;99.90
22984;DHT22;11658;48.908;9.140;2022-09-09T03:23:40;14.90;99.90
22984;DHT22;11658;48.908;9.140;2022-09-09T03:26:06;14.80;99.90
22984;DHT22;11658;48.908;9.140;2022-09-09T03:28:31;14.80;99.90
22984;DHT22;11658;48.908;9.140;2022-09-09T03:31:04;14.80;99.90
22984;DHT22;11658;48.908;9.140;2022-09-09T03:33:30;14.80;99.90
22984;DHT22;11658;48.908;9.140;2022-09-09T03:35:57;14.80;99.90
22984;DHT22;11658;48.908;9.140;2022-09-09T03:38:23;14.70;99.90
22984;DHT22;11658;48.908;9.140;2022-09-09T03:40:51;14.70;99.90
22984;DHT22;11658;48.908;9.140;2022-09-09T03:43:21;14.80;99.90
22984;DHT22;11658;48.908;9.140;2022-09-09T03:45:47;14.80;99.90
22984;DHT22;11658;48.908;9.140;2022-09-09T03:48:13;15.00;99.90
22984;DHT22;11658;48.908;9.140;2022-09-09T03:50:47;15.00;99.90
22984;DHT22;11658;48.908;9.140;2022-09-09T03:53:14;15.00;99.90
22984;DHT22;11658;48.908;9.140;2022-09-09T03:55:43;15.00;99.90
22984;DHT22;11658;48.908;9.140;2022-09-09T03:58:09;15.00;99.90
22984;DHT22;11658;48.908;9.140;2022-09-09T04:00:36;15.00;99.90
22984;DHT22;11658;48.908;9.140;2022-09-09T04:03:01;15.10;99.90
22984;DHT22;11658;48.908;9.140;2022-09-09T04:05:27;15.10;99.90
22984;DHT22;11658;48.908;9.140;2022-09-09T04:07:53;15.10;99.90
22984;DHT22;11658;48.908;9.140;2022-09-09T04:10:19;15.20;99.90
22984;DHT22;11658;48.908;9.140;2022-09-09T04:12:46;15.20;99.90
22984;DHT22;11658;48.908;9.140;2022-09-09T04:15:12;15.20;99.90
22984;DHT22;11658;48.908;9.140;2022-09-09T04:17:38;15.20;99.90
22984;DHT22;11658;48.908;9.140;2022-09-09T04:20:04;15.20;99.90
22984;DHT22;11658;48.908;9.140;2022-09-09T04:22:30;15.10;99.90
22984;DHT22;11658;48.908;9.140;2022-09-09T04:24:57;15.10;99.90
22984;DHT22;11658;48.908;9.140;2022-09-09T04:27:22;15.00;99.90
22984;DHT22;11658;48.908;9.140;2022-09-09T04:29:48;15.10;99.90
22984;DHT22;11658;48.908;9.140;2022-09-09T04:32:14;15.10;99.90
22984;DHT22;11658;48.908;9.140;2022-09-09T04:34:40;15.20;99.90
22984;DHT22;11658;48.908;9.140;2022-09-09T04:37:06;15.30;99.90
22984;DHT22;11658;48.908;9.140;2022-09-09T04:39:32;15.30;99.90
22984;DHT22;11658;48.908;9.140;2022-09-09T04:41:58;15.20;99.90
22984;DHT22;11658;48.908;9.140;2022-09-09T04:44:23;15.20;99.90
22984;DHT22;11658;48.908;9.140;2022-09-09T04:46:49;15.20;99.90
22984;DHT22;11658;48.908;9.140;2022-09-09T04:49:15;15.40;99.90
22984;DHT22;11658;48.908;9.140;2022-09-09T04:51:40;15.40;99.90
22984;DHT22;11658;48.908;9.140;2022-09-09T04:54:06;15.50;99.90
22984;DHT22;11658;48.908;9.140;2022-09-09T04:56:32;15.50;99.90
22984;DHT22;11658;48.908;9.140;2022-09-09T04:58:58;15.40;99.90
22984;DHT22;11658;48.908;9.140;2022-09-09T05:01:23;15.40;99.90
22984;DHT22;11658;48.908;9.140;2022-09-09T05:03:50;15.40;99.90
22984;DHT22;11658;48.908;9.140;2022-09-09T05:06:19;15.50;99.90
22984;DHT22;11658;48.908;9.140;2022-09-09T05:08:45;15.40;99.90
22984;DHT22;11658;48.908;9.140;2022-09-09T05:11:24;15.40;99.90
22984;DHT22;11658;48.908;9.140;2022-09-09T05:13:51;15.40;99.90
22984;DHT22;11658;48.908;9.140;2022-09-09T05:16:18;15.40;99.90
22984;DHT22;11658;48.908;9.140;2022-09-09T05:18:44;15.50;99.90
22984;DHT22;11658;48.908;9.140;2022-09-09T05:21:11;15.50;99.90
22984;DHT22;11658;48.908;9.140;2022-09-09T05:23:36;15.50;99.90
22984;DHT22;11658;48.908;9.140;2022-09-09T05:26:03;15.60;99.90
22984;DHT22;11658;48.908;9.140;2022-09-09T05:28:29;15.80;99.90
22984;DHT22;11658;48.908;9.140;2022-09-09T05:31:07;16.00;99.90
22984;DHT22;11658;48.908;9.140;2022-09-09T05:33:34;16.10;99.90
22984;DHT22;11658;48.908;9.140;2022-09-09T05:36:11;16.20;99.90
22984;DHT22;11658;48.908;9.140;2022-09-09T05:38:40;16.20;99.90
22984;DHT22;11658;48.908;9.140;2022-09-09T05:41:07;16.30;99.90
22984;DHT22;11658;48.908;9.140;2022-09-09T05:43:33;16.40;99.90
22984;DHT22;11658;48.908;9.140;2022-09-09T05:48:37;16.30;99.90
22984;DHT22;11658;48.908;9.140;2022-09-09T05:51:05;16.30;99.90
22984;DHT22;11658;48.908;9.140;2022-09-09T05:53:32;16.30;99.90
22984;DHT22;11658;48.908;9.140;2022-09-09T05:56:10;16.30;99.90
22984;DHT22;11658;48.908;9.140;2022-09-09T05:58:37;16.40;99.90
22984;DHT22;11658;48.908;9.140;2022-09-09T06:01:09;16.40;99.90
22984;DHT22;11658;48.908;9.140;2022-09-09T06:03:36;16.40;99.90
22984;DHT22;11658;48.908;9.140;2022-09-09T06:06:04;16.60;99.90
22984;DHT22;11658;48.908;9.140;2022-09-09T06:08:31;16.70;99.90
22984;DHT22;11658;48.908;9.140;2022-09-09T06:11:08;17.10;99.90
22984;DHT22;11658;48.908;9.140;2022-09-09T06:13:34;16.80;99.90
22984;DHT22;11658;48.908;9.140;2022-09-09T06:16:02;16.80;99.90
22984;DHT22;11658;48.908;9.140;2022-09-09T06:18:28;16.80;99.90
22984;DHT22;11658;48.908;9.140;2022-09-09T06:21:03;16.80;99.90
22984;DHT22;11658;48.908;9.140;2022-09-09T06:23:30;16.90;99.90
22984;DHT22;11658;48.908;9.140;2022-09-09T06:26:07;16.90;99.90
22984;DHT22;11658;48.908;9.140;2022-09-09T06:28:33;17.00;99.90
22984;DHT22;11658;48.908;9.140;2022-09-09T06:31:07;17.10;99.90
22984;DHT22;11658;48.908;9.140;2022-09-09T06:33:35;17.10;99.90
22984;DHT22;11658;48.908;9.140;2022-09-09T06:36:02;17.20;99.90
22984;DHT22;11658;48.908;9.140;2022-09-09T06:38:29;17.20;99.90
22984;DHT22;11658;48.908;9.140;2022-09-09T06:40:56;17.30;99.90
22984;DHT22;11658;48.908;9.140;2022-09-09T06:43:22;17.30;99.90
22984;DHT22;11658;48.908;9.140;2022-09-09T06:46:01;17.50;99.90
22984;DHT22;11658;48.908;9.140;2022-09-09T06:48:28;17.40;99.90
22984;DHT22;11658;48.908;9.140;2022-09-09T06:53:26;17.60;99.90
22984;DHT22;11658;48.908;9.140;2022-09-09T06:55:52;17.70;99.90
22984;DHT22;11658;48.908;9.140;2022-09-09T06:58:18;17.70;99.90
22984;DHT22;11658;48.908;9.140;2022-09-09T07:00:44;17.60;99.90
22984;DHT22;11658;48.908;9.140;2022-09-09T07:03:10;17.60;99.90
22984;DHT22;11658;48.908;9.140;2022-09-09T07:05:36;17.50;99.90
22984;DHT22;11658;48.908;9.140;2022-09-09T07:08:02;17.50;99.90
22984;DHT22;11658;48.908;9.140;2022-09-09T07:10:28;17.50;99.90
22984;DHT22;11658;48.908;9.140;2022-09-09T07:12:54;17.60;99.90
22984;DHT22;11658;48.908;9.140;2022-09-09T07:15:20;17.70;99.90
22984;DHT22;11658;48.908;9.140;2022-09-09T07:17:46;17.90;99.90
22984;DHT22;11658;48.908;9.140;2022-09-09T07:20:14;17.90;99.90
22984;DHT22;11658;48.908;9.140;2022-09-09T07:22:40;18.00;99.90
22984;DHT22;11658;48.908;9.140;2022-09-09T07:25:07;18.20;99.90
22984;DHT22;11658;48.908;9.140;2022-09-09T07:27:33;18.40;99.90
22984;DHT22;11658;48.908;9.140;2022-09-09T07:29:58;18.40;99.90
22984;DHT22;11658;48.908;9.140;2022-09-09T07:32:24;18.40;99.90
22984;DHT22;11658;48.908;9.140;2022-09-09T07:34:51;18.60;99.90
22984;DHT22;11658;48.908;9.140;2022-09-09T07:37:17;18.70;99.90
22984;DHT22;11658;48.908;9.140;2022-09-09T07:39:43;18.70;99.90
22984;DHT22;11658;48.908;9.140;2022-09-09T07:42:09;18.70;99.90
22984;DHT22;11658;48.908;9.140;2022-09-09T07:44:36;18.60;99.90
22984;DHT22;11658;48.908;9.140;2022-09-09T07:47:03;18.50;99.90
22984;DHT22;11658;48.908;9.140;2022-09-09T07:49:28;18.50;99.90
22984;DHT22;11658;48.908;9.140;2022-09-09T07:51:54;18.60;99.90
22984;DHT22;11658;48.908;9.140;2022-09-09T07:54:21;18.60;99.90
22984;DHT22;11658;48.908;9.140;2022-09-09T07:56:49;18.70;99.90
22984;DHT22;11658;48.908;9.140;2022-09-09T07:59:15;18.90;99.90
22984;DHT22;11658;48.908;9.140;2022-09-09T08:01:44;19.00;99.90
22984;DHT22;11658;48.908;9.140;2022-09-09T08:04:18;19.20;99.90
22984;DHT22;11658;48.908;9.140;2022-09-09T08:06:58;19.40;99.90
22984;DHT22;11658;48.908;9.140;2022-09-09T08:09:25;19.40;99.90
22984;DHT22;11658;48.908;9.140;2022-09-09T08:11:54;19.30;99.90
22984;DHT22;11658;48.908;9.140;2022-09-09T08:14:22;19.30;99.90
22984;DHT22;11658;48.908;9.140;2022-09-09T08:16:49;19.30;99.90
22984;DHT22;11658;48.908;9.140;2022-09-09T08:19:16;19.40;99.90
22984;DHT22;11658;48.908;9.140;2022-09-09T08:21:43;19.40;99.90
22984;DHT22;11658;48.908;9.140;2022-09-09T08:24:10;19.40;99.90
22984;DHT22;11658;48.908;9.140;2022-09-09T08:26:38;19.50;99.90
22984;DHT22;11658;48.908;9.140;2022-09-09T08:29:06;19.70;99.90
22984;DHT22;11658;48.908;9.140;2022-09-09T08:31:41;19.80;99.90
22984;DHT22;11658;48.908;9.140;2022-09-09T08:34:08;20.00;99.90
22984;DHT22;11658;48.908;9.140;2022-09-09T08:36:42;20.30;99.90
22984;DHT22;11658;48.908;9.140;2022-09-09T08:39:10;20.50;99.90
22984;DHT22;11658;48.908;9.140;2022-09-09T08:47:16;20.70;99.90
22984;DHT22;11658;48.908;9.140;2022-09-09T08:58:05;20.70;99.90
22984;DHT22;11658;48.908;9.140;2022-09-09T09:00:44;20.70;99.90
22984;DHT22;11658;48.908;9.140;2022-09-09T09:03:22;21.00;99.90
22984;DHT22;11658;48.908;9.140;2022-09-09T09:06:17;21.10;99.90
22984;DHT22;11658;48.908;9.140;2022-09-09T09:11:53;21.60;99.90
22984;DHT22;11658;48.908;9.140;2022-09-09T09:14:21;21.60;99.90
22984;DHT22;11658;48.908;9.140;2022-09-09T09:17:04;21.40;99.90
22984;DHT22;11658;48.908;9.140;2022-09-09T09:19:34;21.10;99.90
22984;DHT22;11658;48.908;9.140;2022-09-09T09:30:21;20.10;99.90
22984;DHT22;11658;48.908;9.140;2022-09-09T09:35:18;20.60;99.90
22984;DHT22;11658;48.908;9.140;2022-09-09T09:37:44;20.80;99.90
22984;DHT22;11658;48.908;9.140;2022-09-09T09:40:15;21.00;99.90
22984;DHT22;11658;48.908;9.140;2022-09-09T09:42:56;21.10;99.90
22984;DHT22;11658;48.908;9.140;2022-09-09T09:45:44;21.20;99.90
22984;DHT22;11658;48.908;9.140;2022-09-09T09:48:14;21.40;99.90
22984;DHT22;11658;48.908;9.140;2022-09-09T09:56:00;22.30;99.90
22984;DHT22;11658;48.908;9.140;2022-09-09T09:58:29;22.50;99.90
22984;DHT22;11658;48.908;9.140;2022-09-09T10:00:56;22.50;99.90
22984;DHT22;11658;48.908;9.140;2022-09-09T10:03:31;22.30;99.90
22984;DHT22;11658;48.908;9.140;2022-09-09T10:05:58;22.40;99.90
22984;DHT22;11658;48.908;9.140;2022-09-09T10:08:25;22.70;99.90
22984;DHT22;11658;48.908;9.140;2022-09-09T10:13:53;22.90;99.90
22984;DHT22;11658;48.908;9.140;2022-09-09T10:26:55;22.70;99.90
22984;DHT22;11658;48.908;9.140;2022-09-09T10:40:34;21.00;99.90
22984;DHT22;11658;48.908;9.140;2022-09-09T10:51:22;21.10;99.90
22984;DHT22;11658;48.908;9.140;2022-09-09T10:54:04;21.50;99.90
22984;DHT22;11658;48.908;9.140;2022-09-09T10:56:34;21.30;99.90
22984;DHT22;11658;48.908;9.140;2022-09-09T10:59:07;21.20;99.90
22984;DHT22;11658;48.908;9.140;2022-09-09T11:01:49;21.10;99.90
22984;DHT22;11658;48.908;9.140;2022-09-09T11:04:21;20.90;99.90
22984;DHT22;11658;48.908;9.140;2022-09-09T11:06:52;20.50;99.90
22984;DHT22;11658;48.908;9.140;2022-09-09T11:09:24;20.20;99.90
22984;DHT22;11658;48.908;9.140;2022-09-09T11:11:57;19.90;99.90
22984;DHT22;11658;48.908;9.140;2022-09-09T11:17:12;19.90;99.90
22984;DHT22;11658;48.908;9.140;2022-09-09T11:19:40;20.00;99.90
22984;DHT22;11658;48.908;9.140;2022-09-09T11:22:31;19.90;99.90
22984;DHT22;11658;48.908;9.140;2022-09-09T11:25:02;19.50;99.90
22984;DHT22;11658;48.908;9.140;2022-09-09T11:30:12;19.40;99.90
22984;DHT22;11658;48.908;9.140;2022-09-09T11:33:03;18.70;99.90
22984;DHT22;11658;48.908;9.140;2022-09-09T11:38:28;18.20;99.90
22984;DHT22;11658;48.908;9.140;2022-09-09T11:41:00;18.30;99.90
22984;DHT22;11658;48.908;9.140;2022-09-09T11:43:32;18.30;99.90
22984;DHT22;11658;48.908;9.140;2022-09-09T11:46:01;18.20;99.90
22984;DHT22;11658;48.908;9.140;2022-09-09T11:48:39;18.10;99.90
22984;DHT22;11658;48.908;9.140;2022-09-09T11:51:11;18.20;99.90
22984;DHT22;11658;48.908;9.140;2022-09-09T11:54:02;18.20;99.90
22984;DHT22;11658;48.908;9.140;2022-09-09T11:56:41;18.50;99.90
22984;DHT22;11658;48.908;9.140;2022-09-09T12:02:32;19.00;99.90
22984;DHT22;11658;48.908;9.140;2022-09-09T12:07:59;19.80;99.90
22984;DHT22;11658;48.908;9.140;2022-09-09T12:10:34;20.30;99.90
22984;DHT22;11658;48.908;9.140;2022-09-09T12:15:35;20.90;99.90
22984;DHT22;11658;48.908;9.140;2022-09-09T12:18:18;20.70;99.90
22984;DHT22;11658;48.908;9.140;2022-09-09T12:26:22;21.30;99.90
22984;DHT22;11658;48.908;9.140;2022-09-09T12:34:37;21.50;99.90
22984;DHT22;11658;48.908;9.140;2022-09-09T12:37:25;21.70;99.90
22984;DHT22;11658;48.908;9.140;2022-09-09T12:39:58;21.50;99.90
22984;DHT22;11658;48.908;9.140;2022-09-09T12:42:25;21.50;99.90
22984;DHT22;11658;48.908;9.140;2022-09-09T12:44:55;21.40;99.90
22984;DHT22;11658;48.908;9.140;2022-09-09T12:47:29;21.30;99.90
22984;DHT22;11658;48.908;9.140;2022-09-09T12:49:59;21.50;99.90
22984;DHT22;11658;48.908;9.140;2022-09-09T12:52:34;21.40;99.90
22984;DHT22;11658;48.908;9.140;2022-09-09T12:55:04;21.50;99.90
22984;DHT22;11658;48.908;9.140;2022-09-09T12:57:37;21.70;99.90
22984;DHT22;11658;48.908;9.140;2022-09-09T13:00:13;22.00;99.90
22984;DHT22;11658;48.908;9.140;2022-09-09T13:02:54;22.10;99.90
22984;DHT22;11658;48.908;9.140;2022-09-09T13:05:35;22.00;99.90
22984;DHT22;11658;48.908;9.140;2022-09-09T13:08:03;22.10;99.90
22984;DHT22;11658;48.908;9.140;2022-09-09T13:10:34;22.00;99.90
22984;DHT22;11658;48.908;9.140;2022-09-09T13:13:01;21.90;99.90
22984;DHT22;11658;48.908;9.140;2022-09-09T13:15:28;21.80;99.90
22984;DHT22;11658;48.908;9.140;2022-09-09T13:17:57;21.70;99.90
22984;DHT22;11658;48.908;9.140;2022-09-09T13:20:26;21.70;99.90
22984;DHT22;11658;48.908;9.140;2022-09-09T13:22:53;22.00;99.90
22984;DHT22;11658;48.908;9.140;2022-09-09T13:25:29;22.10;99.90
22984;DHT22;11658;48.908;9.140;2022-09-09T13:28:05;22.20;99.90
22984;DHT22;11658;48.908;9.140;2022-09-09T13:30:43;22.40;99.90
22984;DHT22;11658;48.908;9.140;2022-09-09T13:33:22;22.60;99.90
22984;DHT22;11658;48.908;9.140;2022-09-09T13:35:56;22.50;99.90
22984;DHT22;11658;48.908;9.140;2022-09-09T13:38:22;22.40;99.90
22984;DHT22;11658;48.908;9.140;2022-09-09T13:40:57;22.70;99.90
22984;DHT22;11658;48.908;9.140;2022-09-09T13:43:25;22.90;99.90
22984;DHT22;11658;48.908;9.140;2022-09-09T13:45:57;22.80;99.90
22984;DHT22;11658;48.908;9.140;2022-09-09T13:48:24;22.60;99.90
22984;DHT22;11658;48.908;9.140;2022-09-09T13:50:55;22.80;99.90
22984;DHT22;11658;48.908;9.140;2022-09-09T13:53:21;22.80;99.90
22984;DHT22;11658;48.908;9.140;2022-09-09T13:55:47;22.70;99.90
22984;DHT22;11658;48.908;9.140;2022-09-09T13:58:16;22.10;99.90
22984;DHT22;11658;48.908;9.140;2022-09-09T14:00:45;22.10;99.90
22984;DHT22;11658;48.908;9.140;2022-09-09T14:03:11;22.20;99.90
22984;DHT22;11658;48.908;9.140;2022-09-09T14:05:37;22.40;99.90
22984;DHT22;11658;48.908;9.140;2022-09-09T14:08:07;22.70;99.90
22984;DHT22;11658;48.908;9.140;2022-09-09T14:10:36;22.60;99.90
22984;DHT22;11658;48.908;9.140;2022-09-09T14:13:02;22.40;99.90
22984;DHT22;11658;48.908;9.140;2022-09-09T14:15:28;22.30;99.90
22984;DHT22;11658;48.908;9.140;2022-09-09T14:17:54;22.20;99.90
22984;DHT22;11658;48.908;9.140;2022-09-09T14:20:20;22.30;99.90
22984;DHT22;11658;48.908;9.140;2022-09-09T14:22:46;22.50;99.90
22984;DHT22;11658;48.908;9.140;2022-09-09T14:25:12;22.60;99.90
22984;DHT22;11658;48.908;9.140;2022-09-09T14:27:40;22.70;99.90
22984;DHT22;11658;48.908;9.140;2022-09-09T14:30:08;22.20;99.90
22984;DHT22;11658;48.908;9.140;2022-09-09T14:32:34;22.20;99.90
22984;DHT22;11658;48.908;9.140;2022-09-09T14:34:59;22.00;99.90
22984;DHT22;11658;48.908;9.140;2022-09-09T14:37:26;22.10;99.90
22984;DHT22;11658;48.908;9.140;2022-09-09T14:39:52;22.20;99.90
22984;DHT22;11658;48.908;9.140;2022-09-09T14:42:20;22.10;99.90
22984;DHT22;11658;48.908;9.140;2022-09-09T14:44:47;22.20;99.90
22984;DHT22;11658;48.908;9.140;2022-09-09T14:47:13;22.20;99.90
22984;DHT22;11658;48.908;9.140;2022-09-09T14:49:39;22.10;99.90
22984;DHT22;11658;48.908;9.140;2022-09-09T14:52:04;22.00;99.90
22984;DHT22;11658;48.908;9.140;2022-09-09T14:54:31;22.00;99.90
22984;DHT22;11658;48.908;9.140;2022-09-09T14:56:57;21.90;99.90
22984;DHT22;11658;48.908;9.140;2022-09-09T14:59:23;22.00;99.90
22984;DHT22;11658;48.908;9.140;2022-09-09T15:01:49;22.00;99.90
22984;DHT22;11658;48.908;9.140;2022-09-09T15:04:15;20.50;99.90
22984;DHT22;11658;48.908;9.140;2022-09-09T15:06:42;22.00;99.90
22984;DHT22;11658;48.908;9.140;2022-09-09T15:09:12;21.70;99.90
22984;DHT22;11658;48.908;9.140;2022-09-09T15:11:38;21.50;99.90
22984;DHT22;11658;48.908;9.140;2022-09-09T15:14:08;21.40;99.90
22984;DHT22;11658;48.908;9.140;2022-09-09T15:16:34;21.30;99.90
22984;DHT22;11658;48.908;9.140;2022-09-09T15:19:03;21.30;99.90
22984;DHT22;11658;48.908;9.140;2022-09-09T15:21:31;21.50;99.90
22984;DHT22;11658;48.908;9.140;2022-09-09T15:23:58;21.60;99.90
22984;DHT22;11658;48.908;9.140;2022-09-09T15:26:25;21.60;99.90
22984;DHT22;11658;48.908;9.140;2022-09-09T15:28:51;21.70;99.90
22984;DHT22;11658;48.908;9.140;2022-09-09T15:31:18;21.70;99.90
22984;DHT22;11658;48.908;9.140;2022-09-09T15:34:05;21.90;99.90
22984;DHT22;11658;48.908;9.140;2022-09-09T15:38:59;22.30;99.90
22984;DHT22;11658;48.908;9.140;2022-09-09T15:41:25;22.30;99.90
22984;DHT22;11658;48.908;9.140;2022-09-09T15:43:53;22.40;99.90
22984;DHT22;11658;48.908;9.140;2022-09-09T15:46:26;22.40;99.90
22984;DHT22;11658;48.908;9.140;2022-09-09T15:49:03;22.30;99.90
22984;DHT22;11658;48.908;9.140;2022-09-09T15:51:29;22.00;99.90
22984;DHT22;11658;48.908;9.140;2022-09-09T15:53:56;21.50;99.90
22984;DHT22;11658;48.908;9.140;2022-09-09T15:56:24;21.30;99.90
22984;DHT22;11658;48.908;9.140;2022-09-09T15:58:50;21.10;99.90
22984;DHT22;11658;48.908;9.140;2022-09-09T16:01:18;21.00;99.90
22984;DHT22;11658;48.908;9.140;2022-09-09T16:03:45;20.90;99.90
22984;DHT22;11658;48.908;9.140;2022-09-09T16:06:18;20.80;99.90
22984;DHT22;11658;48.908;9.140;2022-09-09T16:08:48;20.70;99.90
22984;DHT22;11658;48.908;9.140;2022-09-09T16:11:18;20.70;99.90
22984;DHT22;11658;48.908;9.140;2022-09-09T16:13:46;20.60;99.90
22984;DHT22;11658;48.908;9.140;2022-09-09T16:16:14;20.50;99.90
22984;DHT22;11658;48.908;9.140;2022-09-09T16:18:42;20.50;99.90
22984;DHT22;11658;48.908;9.140;2022-09-09T16:21:13;20.30;99.90
22984;DHT22;11658;48.908;9.140;2022-09-09T16:23:39;19.60;99.90
22984;DHT22;11658;48.908;9.140;2022-09-09T16:26:05;19.00;99.90
22984;DHT22;11658;48.908;9.140;2022-09-09T16:28:31;18.40;99.90
22984;DHT22;11658;48.908;9.140;2022-09-09T16:30:57;17.90;99.90
22984;DHT22;11658;48.908;9.140;2022-09-09T16:33:23;17.30;99.90
22984;DHT22;11658;48.908;9.140;2022-09-09T16:35:49;16.60;99.90
22984;DHT22;11658;48.908;9.140;2022-09-09T16:38:14;16.40;99.90
22984;DHT22;11658;48.908;9.140;2022-09-09T16:40:40;16.10;99.90
22984;DHT22;11658;48.908;9.140;2022-09-09T16:43:09;15.90;99.90
22984;DHT22;11658;48.908;9.140;2022-09-09T16:45:42;15.80;99.90
22984;DHT22;11658;48.908;9.140;2022-09-09T16:48:08;15.80;99.90
22984;DHT22;11658;48.908;9.140;2022-09-09T16:50:34;15.70;99.90
22984;DHT22;11658;48.908;9.140;2022-09-09T16:52:59;15.60;99.90
22984;DHT22;11658;48.908;9.140;2022-09-09T16:55:28;15.60;99.90
22984;DHT22;11658;48.908;9.140;2022-09-09T16:57:54;15.60;99.90
22984;DHT22;11658;48.908;9.140;2022-09-09T17:00:20;15.60;99.90
22984;DHT22;11658;48.908;9.140;2022-09-09T17:02:45;15.40;99.90
22984;DHT22;11658;48.908;9.140;2022-09-09T17:05:11;15.50;99.90
22984;DHT22;11658;48.908;9.140;2022-09-09T17:07:37;15.80;99.90
22984;DHT22;11658;48.908;9.140;2022-09-09T17:10:04;16.30;99.90
22984;DHT22;11658;48.908;9.140;2022-09-09T17:12:31;16.90;99.90
22984;DHT22;11658;48.908;9.140;2022-09-09T17:14:57;17.20;99.90
22984;DHT22;11658;48.908;9.140;2022-09-09T17:17:27;17.00;99.90
22984;DHT22;11658;48.908;9.140;2022-09-09T17:19:52;16.80;99.90
22984;DHT22;11658;48.908;9.140;2022-09-09T17:22:18;16.60;99.90
22984;DHT22;11658;48.908;9.140;2022-09-09T17:24:45;16.40;99.90
22984;DHT22;11658;48.908;9.140;2022-09-09T17:27:11;16.20;99.90
22984;DHT22;11658;48.908;9.140;2022-09-09T17:29:38;16.10;99.90
22984;DHT22;11658;48.908;9.140;2022-09-09T17:32:04;15.90;99.90
22984;DHT22;11658;48.908;9.140;2022-09-09T17:34:34;15.80;99.90
22984;DHT22;11658;48.908;9.140;2022-09-09T17:36:59;15.90;99.90
22984;DHT22;11658;48.908;9.140;2022-09-09T17:39:25;15.80;99.90
22984;DHT22;11658;48.908;9.140;2022-09-09T17:41:51;15.80;99.90
22984;DHT22;11658;48.908;9.140;2022-09-09T17:44:18;15.80;99.90
22984;DHT22;11658;48.908;9.140;2022-09-09T17:46:44;15.70;99.90
22984;DHT22;11658;48.908;9.140;2022-09-09T17:49:15;15.70;99.90
22984;DHT22;11658;48.908;9.140;2022-09-09T17:51:43;15.70;99.90
22984;DHT22;11658;48.908;9.140;2022-09-09T17:54:14;15.70;99.90
22984;DHT22;11658;48.908;9.140;2022-09-09T17:56:40;15.70;99.90
22984;DHT22;11658;48.908;9.140;2022-09-09T17:59:08;15.70;99.90
22984;DHT22;11658;48.908;9.140;2022-09-09T18:01:36;15.70;99.90
22984;DHT22;11658;48.908;9.140;2022-09-09T18:04:04;15.60;99.90
22984;DHT22;11658;48.908;9.140;2022-09-09T18:06:57;15.50;99.90
22984;DHT22;11658;48.908;9.140;2022-09-09T18:09:24;15.60;99.90
22984;DHT22;11658;48.908;9.140;2022-09-09T18:11:53;15.60;99.90
22984;DHT22;11658;48.908;9.140;2022-09-09T18:14:21;15.70;99.90
22984;DHT22;11658;48.908;9.140;2022-09-09T18:16:48;15.70;99.90
22984;DHT22;11658;48.908;9.140;2022-09-09T18:19:17;15.70;99.90
22984;DHT22;11658;48.908;9.140;2022-09-09T18:21:43;15.70;99.90
22984;DHT22;11658;48.908;9.140;2022-09-09T18:24:10;15.80;99.90
22984;DHT22;11658;48.908;9.140;2022-09-09T18:26:37;15.80;99.90
22984;DHT22;11658;48.908;9.140;2022-09-09T18:29:06;15.90;99.90
22984;DHT22;11658;48.908;9.140;2022-09-09T18:31:33;15.80;99.90
22984;DHT22;11658;48.908;9.140;2022-09-09T18:34:01;15.90;99.90
22984;DHT22;11658;48.908;9.140;2022-09-09T18:36:32;15.90;99.90
22984;DHT22;11658;48.908;9.140;2022-09-09T18:38:59;15.90;99.90
22984;DHT22;11658;48.908;9.140;2022-09-09T18:41:28;15.80;99.90
22984;DHT22;11658;48.908;9.140;2022-09-09T18:43:57;15.90;99.90
22984;DHT22;11658;48.908;9.140;2022-09-09T18:46:24;15.90;99.90
22984;DHT22;11658;48.908;9.140;2022-09-09T18:48:50;15.90;99.90
22984;DHT22;11658;48.908;9.140;2022-09-09T18:51:19;15.90;99.90
22984;DHT22;11658;48.908;9.140;2022-09-09T18:53:50;15.90;99.90
22984;DHT22;11658;48.908;9.140;2022-09-09T18:56:15;15.90;99.90
22984;DHT22;11658;48.908;9.140;2022-09-09T18:58:41;15.90;99.90
22984;DHT22;11658;48.908;9.140;2022-09-09T19:01:11;15.90;99.90
22984;DHT22;11658;48.908;9.140;2022-09-09T19:03:37;15.80;99.90
22984;DHT22;11658;48.908;9.140;2022-09-09T19:06:08;15.80;99.90
22984;DHT22;11658;48.908;9.140;2022-09-09T19:08:41;15.70;99.90
22984;DHT22;11658;48.908;9.140;2022-09-09T19:11:10;15.60;99.90
22984;DHT22;11658;48.908;9.140;2022-09-09T19:13:36;15.50;99.90
22984;DHT22;11658;48.908;9.140;2022-09-09T19:16:11;15.60;99.90
22984;DHT22;11658;48.908;9.140;2022-09-09T19:18:37;15.50;99.90
22984;DHT22;11658;48.908;9.140;2022-09-09T19:21:19;15.50;99.90
22984;DHT22;11658;48.908;9.140;2022-09-09T19:23:57;15.40;99.90
22984;DHT22;11658;48.908;9.140;2022-09-09T19:26:25;15.40;99.90
22984;DHT22;11658;48.908;9.140;2022-09-09T19:28:51;15.60;99.90
22984;DHT22;11658;48.908;9.140;2022-09-09T19:31:19;15.60;99.90
22984;DHT22;11658;48.908;9.140;2022-09-09T19:33:46;15.60;99.90
22984;DHT22;11658;48.908;9.140;2022-09-09T19:36:17;15.60;99.90
22984;DHT22;11658;48.908;9.140;2022-09-09T19:38:44;15.90;99.90
22984;DHT22;11658;48.908;9.140;2022-09-09T19:41:18;15.60;99.90
22984;DHT22;11658;48.908;9.140;2022-09-09T19:43:44;15.70;99.90
22984;DHT22;11658;48.908;9.140;2022-09-09T19:46:12;15.70;99.90
22984;DHT22;11658;48.908;9.140;2022-09-09T19:48:40;15.70;99.90
22984;DHT22;11658;48.908;9.140;2022-09-09T19:51:15;15.70;99.90
22984;DHT22;11658;48.908;9.140;2022-09-09T19:53:43;15.70;99.90
22984;DHT22;11658;48.908;9.140;2022-09-09T19:56:10;15.70;99.90
22984;DHT22;11658;48.908;9.140;2022-09-09T19:58:37;15.70;99.90
22984;DHT22;11658;48.908;9.140;2022-09-09T20:01:12;15.80;99.90
22984;DHT22;11658;48.908;9.140;2022-09-09T20:03:40;15.70;99.90
22984;DHT22;11658;48.908;9.140;2022-09-09T20:06:07;15.60;99.90
22984;DHT22;11658;48.908;9.140;2022-09-09T20:08:35;15.50;99.90
22984;DHT22;11658;48.908;9.140;2022-09-09T20:11:02;15.50;99.90
22984;DHT22;11658;48.908;9.140;2022-09-09T20:13:29;15.40;99.90
22984;DHT22;11658;48.908;9.140;2022-09-09T20:15:57;15.30;99.90
22984;DHT22;11658;48.908;9.140;2022-09-09T20:18:29;15.30;99.90
22984;DHT22;11658;48.908;9.140;2022-09-09T20:20:57;15.20;99.90
22984;DHT22;11658;48.908;9.140;2022-09-09T20:23:25;15.20;99.90
22984;DHT22;11658;48.908;9.140;2022-09-09T20:25:51;15.10;99.90